Time;durP1;ratioP1;P1;durP2;ratioP2;P2;SDS_P1;SDS_P2;PMS_P1;PMS_P2;Temp;Humidity;BMP_temperature;BMP_pressure;BME280_temperature;BME280_humidity;BME280_pressure;Samples;Min_cycle;Max_cycle;Signal;HPM_P1;HPM_P2
2023/04/28 00:01:11;;;;;;;12.25;4.75;;;;;;;8.97;95.79;97046.72;5021338;28;20041;-61
2023/04/28 00:03:37;;;;;;;9.00;4.97;;;;;;;8.86;97.64;97034.94;5020535;28;20052;-61
2023/04/28 00:06:04;;;;;;;7.65;4.68;;;;;;;8.77;98.79;97037.25;5025596;28;20207;-61
2023/04/28 00:08:31;;;;;;;7.50;4.50;;;;;;;8.89;97.14;97042.56;5025253;28;20068;-61
2023/04/28 00:10:59;;;;;;;9.05;4.78;;;;;;;9.11;94.73;97030.97;5028375;28;20076;-60
2023/04/28 00:13:25;;;;;;;8.77;4.57;;;;;;;8.95;96.31;97030.75;5031144;28;20111;-61
2023/04/28 00:15:52;;;;;;;9.07;4.57;;;;;;;8.85;97.58;97027.94;5025066;28;20035;-61
2023/04/28 00:18:20;;;;;;;7.03;4.60;;;;;;;8.87;96.55;97028.47;5016874;28;20045;-60
2023/04/28 00:20:47;;;;;;;9.60;4.65;;;;;;;8.95;97.17;97033.44;5032046;28;20049;-59
2023/04/28 00:23:14;;;;;;;7.00;4.00;;;;;;;9.02;95.80;97024.34;5026691;28;20432;-60
2023/04/28 00:25:41;;;;;;;7.43;4.07;;;;;;;9.13;94.25;97023.41;5024666;28;20096;-60
2023/04/28 00:28:07;;;;;;;6.85;3.90;;;;;;;9.20;94.41;97026.75;5015326;28;20523;-60
2023/04/28 00:30:34;;;;;;;7.03;4.15;;;;;;;9.25;93.85;97017.88;5031082;28;20096;-60
2023/04/28 00:33:00;;;;;;;6.22;4.00;;;;;;;9.31;93.11;97024.16;5022363;28;20477;-60
2023/04/28 00:35:27;;;;;;;10.68;4.15;;;;;;;9.35;92.56;97015.31;5025253;28;20033;-61
2023/04/28 00:37:54;;;;;;;6.50;3.63;;;;;;;9.43;92.15;97018.63;5015844;28;20049;-62
2023/04/28 00:40:21;;;;;;;7.28;3.20;;;;;;;9.54;90.22;97019.56;5025545;28;20049;-61
2023/04/28 00:42:47;;;;;;;8.57;3.40;;;;;;;9.66;88.56;97011.31;5017433;28;20446;-61
2023/04/28 00:45:14;;;;;;;9.10;4.30;;;;;;;9.79;86.99;97012.75;5020938;28;20045;-61
2023/04/28 00:47:41;;;;;;;8.18;3.25;;;;;;;9.87;85.53;97009.59;5018868;28;20072;-61
2023/04/28 00:50:09;;;;;;;8.32;3.35;;;;;;;9.96;83.67;96999.97;5032382;28;20045;-61
2023/04/28 00:52:37;;;;;;;8.55;3.25;;;;;;;10.09;81.93;97004.13;5029459;28;20049;-61
2023/04/28 00:55:06;;;;;;;5.13;3.13;;;;;;;10.15;81.55;97003.06;5023109;28;20049;-58
2023/04/28 00:57:33;;;;;;;5.88;3.42;;;;;;;10.22;80.09;97004.75;5024616;28;20058;-61
2023/04/28 00:59:59;;;;;;;7.20;3.50;;;;;;;10.28;79.48;96999.13;5027875;28;20061;-61
2023/04/28 01:02:28;;;;;;;7.90;3.13;;;;;;;10.37;79.03;96994.06;5021846;28;20037;-61
2023/04/28 01:04:56;;;;;;;7.68;3.28;;;;;;;10.37;79.98;97002.19;5030551;28;20505;-60
2023/04/28 01:07:23;;;;;;;5.30;3.05;;;;;;;10.38;79.29;97000.28;5016974;28;20697;-60
2023/04/28 01:09:50;;;;;;;7.22;3.38;;;;;;;10.41;79.64;96989.75;5022497;28;20266;-61
2023/04/28 01:12:22;;;;;;;5.47;2.97;;;;;;;10.41;79.26;96992.47;5024573;28;20091;-61
2023/04/28 01:14:51;;;;;;;6.95;3.10;;;;;;;10.49;79.37;96985.78;5021392;28;20049;-61
2023/04/28 01:17:17;;;;;;;6.57;3.13;;;;;;;10.46;79.37;96978.16;5022880;28;20036;-61
2023/04/28 01:19:44;;;;;;;6.28;2.92;;;;;;;10.46;79.40;96977.38;5024690;28;20046;-61
2023/04/28 01:22:14;;;;;;;6.05;3.15;;;;;;;10.44;79.48;96983.03;5023460;28;20589;-61
2023/04/28 01:24:41;;;;;;;7.18;3.33;;;;;;;10.43;80.08;96978.66;5030564;28;20037;-60
2023/04/28 01:27:10;;;;;;;6.05;3.13;;;;;;;10.38;80.39;96965.09;5013171;28;20054;-60
2023/04/28 01:29:38;;;;;;;6.57;3.13;;;;;;;10.36;81.18;96967.25;5020272;28;20497;-61
2023/04/28 01:32:05;;;;;;;6.53;3.13;;;;;;;10.35;81.62;96965.59;5014691;28;20041;-61
2023/04/28 01:34:32;;;;;;;6.45;3.08;;;;;;;10.29;82.63;96972.91;5025607;28;20044;-60
2023/04/28 01:36:59;;;;;;;6.63;3.47;;;;;;;10.27;82.02;96966.91;5017283;28;20037;-60
2023/04/28 01:39:25;;;;;;;8.68;3.30;;;;;;;10.24;82.79;96970.97;5022135;28;20052;-61
2023/04/28 01:41:52;;;;;;;4.85;2.90;;;;;;;10.29;81.77;96959.38;5022321;28;20540;-60
2023/04/28 01:44:18;;;;;;;7.75;3.10;;;;;;;10.31;82.14;96954.50;5024126;28;20505;-60
2023/04/28 01:46:47;;;;;;;5.35;2.78;;;;;;;10.37;81.49;96953.47;5015332;28;20550;-60
2023/04/28 01:49:13;;;;;;;4.38;2.70;;;;;;;10.43;80.77;96954.28;5015168;28;20692;-59
2023/04/28 01:51:41;;;;;;;7.22;2.75;;;;;;;10.44;80.94;96960.53;5023718;28;20045;-60
2023/04/28 01:54:08;;;;;;;5.97;2.97;;;;;;;10.40;81.00;96952.13;5026775;28;20049;-60
2023/04/28 01:56:35;;;;;;;5.10;3.00;;;;;;;10.39;80.69;96945.88;5025325;28;20042;-60
2023/04/28 01:59:02;;;;;;;6.43;3.00;;;;;;;10.41;80.76;96943.75;5013592;28;20042;-60
2023/04/28 02:01:29;;;;;;;7.28;2.83;;;;;;;10.41;80.53;96937.50;5023322;28;20037;-61
2023/04/28 02:03:56;;;;;;;5.15;2.70;;;;;;;10.41;80.94;96934.81;5029272;28;20041;-61
2023/04/28 02:06:22;;;;;;;4.97;2.67;;;;;;;10.44;80.47;96942.44;5021932;28;20405;-61
2023/04/28 02:08:49;;;;;;;7.28;2.45;;;;;;;10.43;80.83;96945.38;5026314;28;20053;-60
2023/04/28 02:11:16;;;;;;;7.97;2.90;;;;;;;10.39;81.66;96945.88;5016321;28;20741;-61
2023/04/28 02:13:42;;;;;;;6.55;2.92;;;;;;;10.43;81.20;96945.38;5008392;28;20117;-60
2023/04/28 02:16:09;;;;;;;5.88;2.90;;;;;;;10.47;81.06;96943.81;5009651;28;20465;-61
2023/04/28 02:18:35;;;;;;;5.88;2.92;;;;;;;10.39;82.26;96939.66;5013660;28;20060;-61
2023/04/28 02:21:12;;;;;;;6.53;2.53;;;;;;;10.37;81.75;96942.63;5016736;28;20052;-60
2023/04/28 02:23:39;;;;;;;4.65;2.78;;;;;;;10.41;81.72;96935.63;5023032;28;20794;-60
2023/04/28 02:26:06;;;;;;;5.65;2.97;;;;;;;10.46;81.17;96931.34;5030138;28;20044;-61
2023/04/28 02:28:32;;;;;;;7.00;2.75;;;;;;;10.45;81.01;96929.69;5022803;28;20053;-61
2023/04/28 02:31:04;;;;;;;5.10;2.67;;;;;;;10.51;80.90;96937.59;5023781;28;20045;-59
2023/04/28 02:33:31;;;;;;;7.85;3.05;;;;;;;10.63;79.79;96939.28;5017529;28;20050;-61
2023/04/28 02:35:59;;;;;;;5.35;3.03;;;;;;;10.83;77.68;96937.75;5033620;28;21234;-60
2023/04/28 02:38:26;;;;;;;4.55;2.17;;;;;;;11.02;76.50;96944.31;5017143;28;20038;-60
2023/04/28 02:41:03;;;;;;;5.72;2.90;;;;;;;11.00;77.09;96945.66;5021560;28;20683;-60
2023/04/28 02:43:31;;;;;;;5.63;3.03;;;;;;;10.97;77.18;96944.31;5023286;28;20037;-61
2023/04/28 02:45:58;;;;;;;6.70;2.70;;;;;;;10.94;77.25;96955.66;5011772;28;20104;-60
2023/04/28 02:48:25;;;;;;;6.10;3.00;;;;;;;10.85;78.46;96955.38;5008011;28;20140;-60
2023/04/28 02:50:52;;;;;;;7.68;2.72;;;;;;;10.80;79.46;96958.88;5021332;28;20048;-60
2023/04/28 02:53:19;;;;;;;5.07;3.30;;;;;;;10.72;82.04;96963.97;5021146;28;20048;-61
2023/04/28 02:55:46;;;;;;;6.82;3.72;;;;;;;10.54;84.88;96957.91;5021750;28;20192;-61
2023/04/28 02:58:13;;;;;;;7.28;3.38;;;;;;;10.53;85.66;96950.88;5034471;28;20045;-60
2023/04/28 03:00:40;;;;;;;5.35;3.10;;;;;;;10.55;85.69;96954.13;5020482;28;20045;-60
2023/04/28 03:03:06;;;;;;;5.63;2.88;;;;;;;10.65;84.53;96951.47;5024037;28;20057;-60
2023/04/28 03:05:33;;;;;;;6.78;3.25;;;;;;;10.52;87.63;96941.94;5025483;28;20057;-61
2023/04/28 03:08:00;;;;;;;8.60;3.13;;;;;;;10.49;88.46;96942.47;5026093;28;20056;-60
2023/04/28 03:10:27;;;;;;;7.32;3.25;;;;;;;10.62;86.11;96943.06;5035208;28;20056;-60
2023/04/28 03:12:53;;;;;;;5.60;3.03;;;;;;;10.63;85.76;96942.81;5011092;28;20042;-60
2023/04/28 03:15:20;;;;;;;5.55;2.90;;;;;;;10.46;87.92;96942.19;5026382;28;20701;-61
2023/04/28 03:17:47;;;;;;;6.13;3.35;;;;;;;10.43;90.70;96929.94;5023655;28;20052;-61
2023/04/28 03:20:14;;;;;;;6.43;2.80;;;;;;;10.44;90.25;96925.34;5023329;28;20045;-60
2023/04/28 03:22:41;;;;;;;6.88;3.42;;;;;;;10.35;91.12;96920.44;5018867;28;20494;-60
2023/04/28 03:25:07;;;;;;;6.88;3.33;;;;;;;10.43;90.21;96926.44;5019159;28;20038;-61
2023/04/28 03:27:43;;;;;;;5.53;3.03;;;;;;;10.56;89.48;96922.44;5023454;28;20056;-61
2023/04/28 03:30:10;;;;;;;5.78;2.55;;;;;;;10.67;87.89;96918.72;5015624;28;20088;-60
2023/04/28 03:32:37;;;;;;;8.80;3.22;;;;;;;10.61;87.87;96919.78;5024970;28;20084;-61
2023/04/28 03:35:03;;;;;;;6.40;3.50;;;;;;;10.41;90.47;96913.97;5018739;28;20049;-61
2023/04/28 03:37:30;;;;;;;6.45;3.38;;;;;;;10.29;91.50;96916.06;5019334;28;20034;-60
2023/04/28 03:39:57;;;;;;;5.28;2.75;;;;;;;10.33;91.07;96913.66;5025189;28;20103;-61
2023/04/28 03:42:23;;;;;;;5.10;3.00;;;;;;;10.45;89.08;96906.16;5030701;28;20045;-61
2023/04/28 03:45:04;;;;;;;5.28;2.90;;;;;;;10.57;88.46;96905.16;5019108;28;20095;-61
2023/04/28 03:47:31;;;;;;;4.15;2.53;;;;;;;10.55;88.25;96905.41;5029995;28;20047;-61
2023/04/28 03:49:57;;;;;;;4.57;2.70;;;;;;;10.46;89.30;96899.66;5024287;28;20049;-60
2023/04/28 03:52:25;;;;;;;6.72;2.92;;;;;;;10.44;89.13;96893.72;5038114;28;20098;-61
2023/04/28 03:54:51;;;;;;;6.78;3.17;;;;;;;10.47;88.81;96893.19;5048702;28;20729;-61
2023/04/28 03:57:18;;;;;;;5.45;3.40;;;;;;;10.52;89.31;96895.94;5024401;28;20041;-61
2023/04/28 03:59:45;;;;;;;6.85;3.22;;;;;;;10.50;89.92;96892.66;5026333;28;20080;-61
2023/04/28 04:02:11;;;;;;;4.82;2.78;;;;;;;10.57;88.01;96895.13;5028021;28;20055;-61
2023/04/28 04:04:38;;;;;;;5.93;3.08;;;;;;;10.69;86.81;96894.91;5026019;28;20056;-60
2023/04/28 04:07:05;;;;;;;5.80;2.50;;;;;;;10.84;85.88;96904.19;5020067;28;20041;-61
2023/04/28 04:09:31;;;;;;;5.63;2.67;;;;;;;10.91;85.06;96893.91;5024801;28;20041;-61
2023/04/28 04:11:59;;;;;;;5.22;2.53;;;;;;;10.94;84.53;96896.06;5023649;28;20049;-61
2023/04/28 04:14:26;;;;;;;4.72;2.42;;;;;;;10.97;85.16;96887.44;5024347;28;20033;-61
2023/04/28 04:16:54;;;;;;;6.82;3.03;;;;;;;11.04;84.17;96890.69;5022499;28;20041;-61
2023/04/28 04:19:22;;;;;;;8.13;2.38;;;;;;;11.12;83.89;96894.78;5026389;28;20070;-61
2023/04/28 04:21:52;;;;;;;4.47;2.80;;;;;;;11.14;83.99;96887.22;5030842;28;20053;-61
2023/04/28 04:24:18;;;;;;;8.13;2.55;;;;;;;11.02;88.36;96892.06;5033093;28;20033;-61
2023/04/28 04:26:45;;;;;;;4.15;2.13;;;;;;;10.96;88.94;96884.97;5021351;28;20041;-61
2023/04/28 04:29:30;;;;;;;5.70;2.58;;;;;;;10.97;88.69;96886.59;5017922;28;20049;-61
2023/04/28 04:31:58;;;;;;;5.00;2.47;;;;;;;10.95;88.83;96883.34;5021449;28;20057;-61
2023/04/28 04:34:25;;;;;;;12.30;3.00;;;;;;;10.79;90.77;96886.81;5029475;28;20040;-60
2023/04/28 04:36:51;;;;;;;5.72;2.55;;;;;;;10.64;93.15;96882.16;5017558;28;20109;-59
2023/04/28 04:39:18;;;;;;;4.15;2.20;;;;;;;10.64;93.12;96887.59;5023561;28;20510;-60
2023/04/28 04:41:46;;;;;;;6.07;2.53;;;;;;;10.56;93.60;96887.25;5019371;28;20049;-60
2023/04/28 04:44:33;;;;;;;4.35;2.50;;;;;;;10.54;94.31;96874.81;5025341;28;20119;-60
2023/04/28 04:46:59;;;;;;;8.02;3.10;;;;;;;10.60;96.09;96872.94;5022263;28;20037;-59
2023/04/28 04:49:26;;;;;;;4.72;2.63;;;;;;;10.64;97.57;96873.22;5023800;28;20049;-60
2023/04/28 04:51:53;;;;;;;7.00;3.28;;;;;;;10.68;95.26;96879.75;5028956;28;20095;-60
2023/04/28 04:54:19;;;;;;;7.55;3.17;;;;;;;10.75;95.75;96883.03;5027651;28;20045;-60
2023/04/28 04:56:46;;;;;;;8.48;3.63;;;;;;;10.88;94.27;96883.59;5024561;28;20076;-60
2023/04/28 04:59:19;;;;;;;6.50;2.70;;;;;;;10.76;100.00;96890.06;5016847;28;20126;-60
2023/04/28 05:01:57;;;;;;;6.95;2.92;;;;;;;10.73;100.00;96893.28;5016526;28;20107;-60
2023/04/28 05:04:24;;;;;;;4.90;2.67;;;;;;;10.75;100.00;96888.44;5012998;28;20034;-60
2023/04/28 05:06:51;;;;;;;7.40;3.08;;;;;;;10.77;100.00;96886.25;5013355;28;20068;-60
2023/04/28 05:09:18;;;;;;;5.30;2.88;;;;;;;10.80;100.00;96882.25;5018402;28;20045;-60
2023/04/28 05:11:45;;;;;;;5.63;2.95;;;;;;;10.80;100.00;96883.03;5015981;28;20658;-60
2023/04/28 05:14:11;;;;;;;6.93;2.63;;;;;;;10.71;100.00;96886.50;5023206;28;20045;-60
2023/04/28 05:16:41;;;;;;;5.75;3.10;;;;;;;10.70;100.00;96893.84;5016680;28;20045;-60
2023/04/28 05:19:10;;;;;;;5.32;3.53;;;;;;;10.74;100.00;96889.53;5022276;28;20041;-60
2023/04/28 05:21:36;;;;;;;5.18;2.63;;;;;;;10.72;100.00;96883.53;5021719;28;20094;-60
2023/04/28 05:24:04;;;;;;;8.85;3.03;;;;;;;10.60;100.00;96891.91;5012971;28;20072;-60
2023/04/28 05:26:30;;;;;;;4.55;2.83;;;;;;;10.54;100.00;96891.06;5020873;28;20041;-61
2023/04/28 05:29:02;;;;;;;6.70;3.33;;;;;;;10.52;100.00;96887.81;5015861;28;20037;-60
2023/04/28 05:31:29;;;;;;;6.30;3.20;;;;;;;10.62;100.00;96883.50;5020657;28;20047;-61
2023/04/28 05:33:57;;;;;;;7.13;3.10;;;;;;;10.68;100.00;96885.16;5014863;28;20053;-61
2023/04/28 05:36:24;;;;;;;5.45;3.00;;;;;;;10.64;100.00;96881.34;5021140;28;20045;-60
2023/04/28 05:38:51;;;;;;;8.00;3.60;;;;;;;10.67;100.00;96878.13;5015980;28;20045;-60
2023/04/28 05:41:18;;;;;;;9.32;3.38;;;;;;;10.75;100.00;96872.19;5024821;28;20094;-60
2023/04/28 05:43:45;;;;;;;7.18;3.17;;;;;;;10.75;100.00;96877.59;5024671;28;20514;-61
2023/04/28 05:46:12;;;;;;;7.00;3.25;;;;;;;10.93;99.35;96872.78;5016424;28;20045;-61
2023/04/28 05:48:55;;;;;;;4.45;2.67;;;;;;;10.96;99.57;96872.25;5020344;28;20527;-61
2023/04/28 05:51:22;;;;;;;6.65;3.42;;;;;;;10.99;99.38;96871.69;5024092;28;20625;-60
2023/04/28 05:53:50;;;;;;;4.40;2.92;;;;;;;10.97;99.66;96868.47;5024800;28;20076;-60
2023/04/28 05:56:16;;;;;;;5.53;3.30;;;;;;;11.01;98.45;96861.44;5043501;28;20041;-60
2023/04/28 05:58:43;;;;;;;5.53;3.25;;;;;;;10.93;100.00;96868.19;5016789;28;20045;-58
2023/04/28 06:01:10;;;;;;;14.77;7.88;;;;;;;10.95;100.00;96865.22;5019549;28;20045;-59
2023/04/28 06:03:39;;;;;;;5.00;3.05;;;;;;;11.01;99.28;96866.84;5007941;28;20065;-60
2023/04/28 06:06:07;;;;;;;5.47;2.80;;;;;;;10.95;100.00;96864.41;5011342;28;20038;-59
2023/04/28 06:08:36;;;;;;;4.88;2.60;;;;;;;10.97;99.89;96863.03;5019463;28;20045;-58
2023/04/28 06:11:04;;;;;;;4.65;2.83;;;;;;;11.00;99.09;96872.53;5012876;28;20041;-59
2023/04/28 06:13:30;;;;;;;5.53;2.75;;;;;;;11.12;98.41;96872.28;5024050;28;20627;-60
2023/04/28 06:15:57;;;;;;;5.05;2.67;;;;;;;11.24;97.89;96866.63;5014067;28;20038;-59
2023/04/28 06:18:24;;;;;;;4.40;2.20;;;;;;;11.28;99.35;96862.31;5017664;28;20053;-59
2023/04/28 06:20:51;;;;;;;7.05;3.28;;;;;;;11.26;100.00;96861.75;5014342;28;20033;-59
2023/04/28 06:23:18;;;;;;;4.03;2.75;;;;;;;11.26;100.00;96862.56;5019191;28;20071;-59
2023/04/28 06:25:46;;;;;;;4.90;2.60;;;;;;;11.25;100.00;96869.06;5009240;28;20144;-60
2023/04/28 06:28:13;;;;;;;4.78;2.83;;;;;;;11.29;100.00;96867.47;5017913;28;20029;-59
2023/04/28 06:30:40;;;;;;;4.22;2.60;;;;;;;11.30;100.00;96860.13;5012202;28;20057;-59
2023/04/28 06:33:07;;;;;;;6.95;2.60;;;;;;;11.23;100.00;96862.25;5016740;28;20678;-59
2023/04/28 06:35:35;;;;;;;5.07;2.97;;;;;;;11.29;100.00;96858.50;5012266;28;20056;-56
2023/04/28 06:38:03;;;;;;;5.70;2.83;;;;;;;11.33;100.00;96854.16;5013656;28;20049;-58
2023/04/28 06:40:30;;;;;;;4.63;2.80;;;;;;;11.27;100.00;96861.47;5045690;28;20103;-58
2023/04/28 06:42:58;;;;;;;6.22;2.90;;;;;;;11.26;100.00;96854.44;5027234;28;20123;-60
2023/04/28 06:45:39;;;;;;;4.65;2.58;;;;;;;11.30;100.00;96850.09;5025345;28;20057;-59
2023/04/28 06:48:06;;;;;;;6.18;2.60;;;;;;;11.32;100.00;96856.06;5017290;28;20045;-60
2023/04/28 06:50:36;;;;;;;4.25;2.70;;;;;;;11.22;100.00;96849.81;5018294;28;20046;-58
2023/04/28 06:53:06;;;;;;;4.20;2.28;;;;;;;11.26;100.00;96854.44;5022794;28;20041;-59
2023/04/28 06:55:33;;;;;;;5.20;2.83;;;;;;;11.24;100.00;96848.44;5016383;28;20080;-57
2023/04/28 06:58:00;;;;;;;5.22;2.63;;;;;;;11.25;100.00;96847.41;5017464;28;20493;-59
2023/04/28 07:00:26;;;;;;;5.07;2.78;;;;;;;11.28;100.00;96838.69;5019284;28;20057;-58
2023/04/28 07:02:53;;;;;;;5.25;2.53;;;;;;;11.24;100.00;96837.63;5014646;28;20623;-58
2023/04/28 07:05:20;;;;;;;4.25;2.70;;;;;;;11.30;100.00;96839.25;5018929;28;20037;-59
2023/04/28 07:07:46;;;;;;;5.30;2.63;;;;;;;11.36;100.00;96839.25;5017977;28;20080;-59
2023/04/28 07:10:14;;;;;;;6.07;2.78;;;;;;;11.34;100.00;96838.69;5029547;28;20045;-59
2023/04/28 07:12:41;;;;;;;4.72;2.60;;;;;;;11.37;100.00;96839.00;5027944;28;20049;-59
2023/04/28 07:15:07;;;;;;;4.60;2.70;;;;;;;11.30;100.00;96841.16;5020486;28;20074;-59
2023/04/28 07:17:35;;;;;;;5.13;3.22;;;;;;;11.35;100.00;96846.56;5018753;28;20053;-59
2023/04/28 07:20:04;;;;;;;5.53;3.10;;;;;;;11.25;100.00;96847.41;5030613;28;20041;-57
2023/04/28 07:22:30;;;;;;;5.38;2.45;;;;;;;11.40;100.00;96841.16;5014051;28;20056;-59
2023/04/28 07:24:57;;;;;;;5.88;2.85;;;;;;;11.32;100.00;96837.09;5019003;28;20045;-59
2023/04/28 07:27:23;;;;;;;5.35;2.70;;;;;;;11.31;100.00;96843.59;5015405;28;20041;-58
2023/04/28 07:29:50;;;;;;;5.60;2.58;;;;;;;11.23;100.00;96844.13;5012978;28;20057;-59
2023/04/28 07:32:16;;;;;;;5.63;3.03;;;;;;;11.22;100.00;96845.22;5016764;28;20038;-59
2023/04/28 07:34:43;;;;;;;4.78;2.90;;;;;;;11.20;100.00;96839.22;5011511;28;20431;-59
2023/04/28 07:37:10;;;;;;;4.90;2.72;;;;;;;11.26;100.00;96845.47;5021470;28;20148;-58
2023/04/28 07:39:39;;;;;;;4.78;2.63;;;;;;;11.24;100.00;96844.94;5021847;28;20448;-58
2023/04/28 07:42:05;;;;;;;6.97;3.05;;;;;;;11.21;100.00;96849.00;5020583;28;20076;-59
2023/04/28 07:44:32;;;;;;;4.53;2.75;;;;;;;11.20;100.00;96858.19;5025169;28;20049;-58
2023/04/28 07:46:59;;;;;;;8.13;3.08;;;;;;;11.17;100.00;96856.06;5018161;28;20077;-59
2023/04/28 07:49:30;;;;;;;5.72;3.42;;;;;;;11.06;100.00;96860.63;5024015;28;20045;-58
2023/04/28 07:51:56;;;;;;;8.05;3.78;;;;;;;11.10;100.00;96850.91;5026163;28;20049;-58
2023/04/28 07:54:24;;;;;;;6.60;3.40;;;;;;;11.01;100.00;96864.13;5023314;28;20042;-58
2023/04/28 07:56:50;;;;;;;6.15;3.50;;;;;;;11.04;100.00;96869.03;5016837;28;20140;-59
2023/04/28 07:59:17;;;;;;;6.75;3.60;;;;;;;11.03;100.00;96878.22;5023960;28;20053;-59
2023/04/28 08:01:43;;;;;;;7.55;3.70;;;;;;;11.09;100.00;96889.09;5017530;28;20050;-58
2023/04/28 08:04:10;;;;;;;8.00;3.65;;;;;;;11.11;100.00;96889.63;5014551;28;20130;-59
2023/04/28 08:06:38;;;;;;;6.72;3.13;;;;;;;11.15;100.00;96899.66;5020439;28;20148;-58
2023/04/28 08:09:05;;;;;;;6.72;3.10;;;;;;;11.22;100.00;96907.53;5019369;28;20038;-59
2023/04/28 08:11:32;;;;;;;7.40;3.55;;;;;;;11.34;100.00;96914.59;5016006;28;20535;-59
2023/04/28 08:14:01;;;;;;;7.03;3.08;;;;;;;11.45;100.00;96922.50;5013864;28;20878;-59
2023/04/28 08:16:29;;;;;;;7.10;2.50;;;;;;;11.54;100.00;96917.34;5023580;28;20042;-59
2023/04/28 08:18:56;;;;;;;5.22;2.15;;;;;;;11.64;100.00;96921.16;5020773;28;20045;-58
2023/04/28 08:21:23;;;;;;;4.53;1.90;;;;;;;11.55;100.00;96923.59;5018725;28;20057;-59
2023/04/28 08:23:50;;;;;;;4.25;2.50;;;;;;;11.52;100.00;96921.41;5029699;28;20061;-59
2023/04/28 08:26:16;;;;;;;4.30;2.30;;;;;;;11.53;100.00;96933.88;5023320;28;20129;-59
2023/04/28 08:28:43;;;;;;;5.25;2.20;;;;;;;11.63;100.00;96933.06;5027703;28;20556;-61
2023/04/28 08:31:09;;;;;;;4.18;2.20;;;;;;;11.54;100.00;96932.81;5024531;28;20866;-60
2023/04/28 08:33:36;;;;;;;3.92;1.95;;;;;;;11.65;100.00;96930.94;5033610;28;20061;-59
2023/04/28 08:36:03;;;;;;;3.05;1.70;;;;;;;11.57;100.00;96921.41;5022710;28;20136;-60
2023/04/28 08:38:30;;;;;;;3.15;1.70;;;;;;;11.42;100.00;96928.44;5026809;28;20072;-59
2023/04/28 08:40:56;;;;;;;2.65;1.48;;;;;;;11.45;100.00;96946.91;5023151;28;20041;-60
2023/04/28 08:43:24;;;;;;;3.50;1.52;;;;;;;11.47;100.00;96952.06;5023784;28;21124;-60
2023/04/28 08:45:50;;;;;;;7.25;4.65;;;;;;;11.44;100.00;96966.13;5019245;28;20057;-59
2023/04/28 08:48:19;;;;;;;5.57;3.65;;;;;;;11.47;100.00;96972.91;5022392;28;20033;-61
2023/04/28 08:50:51;;;;;;;4.80;3.10;;;;;;;11.54;100.00;96976.19;5015361;28;20527;-60
2023/04/28 08:53:24;;;;;;;4.38;3.17;;;;;;;11.62;100.00;96964.81;5023930;28;20050;-60
2023/04/28 08:55:55;;;;;;;4.32;2.70;;;;;;;11.76;100.00;96970.50;5022388;28;20099;-60
2023/04/28 08:58:26;;;;;;;4.55;2.70;;;;;;;11.71;100.00;96967.81;5016765;28;20112;-60
2023/04/28 09:00:53;;;;;;;4.45;2.65;;;;;;;11.72;100.00;96966.72;5021812;28;20041;-61
2023/04/28 09:03:20;;;;;;;4.07;2.47;;;;;;;11.82;100.00;96974.06;5022179;28;20120;-61
2023/04/28 09:05:47;;;;;;;3.90;1.90;;;;;;;11.88;100.00;96988.44;5014344;28;20119;-60
2023/04/28 09:08:14;;;;;;;4.15;2.10;;;;;;;11.81;100.00;96975.97;5022100;28;20400;-60
2023/04/28 09:10:41;;;;;;;4.53;2.40;;;;;;;11.86;100.00;96967.00;5022896;28;20408;-58
2023/04/28 09:13:07;;;;;;;4.28;2.38;;;;;;;11.90;100.00;96970.81;5023196;28;20050;-60
2023/04/28 09:15:36;;;;;;;4.00;2.25;;;;;;;11.89;100.00;96982.75;5022472;28;20045;-60
2023/04/28 09:18:05;;;;;;;5.45;2.67;;;;;;;12.03;100.00;96983.03;5020486;28;20046;-60
2023/04/28 09:20:33;;;;;;;4.88;2.83;;;;;;;12.23;100.00;96989.56;5022426;28;20072;-60
2023/04/28 09:23:12;;;;;;;5.93;2.75;;;;;;;12.38;100.00;96977.06;5024838;28;20041;-60
2023/04/28 09:25:39;;;;;;;4.15;2.10;;;;;;;12.66;100.00;96961.25;5022950;28;20504;-60
2023/04/28 09:28:20;;;;;;;4.20;2.30;;;;;;;12.78;100.00;96960.97;5020135;28;20662;-60
2023/04/28 09:30:47;;;;;;;4.05;2.03;;;;;;;12.90;100.00;96950.56;5021279;28;20060;-60
2023/04/28 09:33:14;;;;;;;5.20;2.45;;;;;;;12.85;100.00;96964.19;5023254;28;20152;-60
2023/04/28 09:35:44;;;;;;;3.35;1.80;;;;;;;12.83;100.00;96961.75;5020648;28;20057;-60
2023/04/28 09:38:11;;;;;;;3.50;1.80;;;;;;;12.87;100.00;96951.16;5022828;28;20041;-60
2023/04/28 09:40:54;;;;;;;4.47;1.98;;;;;;;12.84;100.00;96949.81;5023071;28;20049;-60
2023/04/28 09:43:34;;;;;;;3.53;1.90;;;;;;;13.04;100.00;96961.66;5018801;28;20505;-61
2023/04/28 09:46:03;;;;;;;4.53;1.95;;;;;;;13.40;100.00;96958.78;5021087;28;20052;-60
2023/04/28 09:48:35;;;;;;;3.95;1.98;;;;;;;13.52;100.00;96952.22;5021497;28;20045;-57
2023/04/28 09:51:04;;;;;;;3.92;1.80;;;;;;;13.69;100.00;96948.31;5021637;28;20099;-60
2023/04/28 09:53:32;;;;;;;3.92;2.30;;;;;;;13.58;100.00;96953.00;5026737;28;20045;-60
2023/04/28 09:56:01;;;;;;;2.45;0.90;;;;;;;13.72;100.00;96940.41;5020139;28;20046;-59
2023/04/28 09:58:28;;;;;;;0.47;0.43;;;;;;;13.86;100.00;96929.66;5020687;28;20037;-59
2023/04/28 10:00:56;;;;;;;1.13;0.77;;;;;;;14.21;100.00;96937.81;5023922;28;20085;-59
2023/04/28 10:03:26;;;;;;;1.42;0.50;;;;;;;14.45;100.00;96931.63;5017144;28;20049;-60
2023/04/28 10:05:57;;;;;;;0.80;0.43;;;;;;;14.51;100.00;96933.19;5020419;28;20088;-59
2023/04/28 10:08:24;;;;;;;2.08;0.40;;;;;;;14.66;100.00;96923.19;5022271;28;20052;-59
2023/04/28 10:10:55;;;;;;;1.52;0.40;;;;;;;14.85;100.00;96912.38;5020830;28;20049;-58
2023/04/28 10:13:23;;;;;;;0.55;0.40;;;;;;;15.18;100.00;96915.25;5020828;28;20072;-60
2023/04/28 10:15:50;;;;;;;0.32;0.30;;;;;;;15.26;100.00;96927.41;5018892;28;20563;-60
2023/04/28 10:18:17;;;;;;;1.25;0.43;;;;;;;15.13;100.00;96909.88;5020713;28;20041;-61
2023/04/28 10:20:48;;;;;;;0.77;0.35;;;;;;;15.19;100.00;96925.03;5019053;28;20064;-61
2023/04/28 10:23:30;;;;;;;;;;;;;;;15.37;100.00;96913.63;5024721;28;20528;-59
2023/04/28 10:25:58;;;;;;;0.50;0.30;;;;;;;15.23;100.00;96916.28;5019614;28;20635;-58
2023/04/28 10:28:27;;;;;;;0.65;0.50;;;;;;;15.10;100.00;96921.34;5019541;28;20057;-58
2023/04/28 10:31:17;;;;;;;0.40;0.40;;;;;;;15.28;100.00;96908.03;5019025;28;20602;-58
2023/04/28 10:33:43;;;;;;;0.68;0.50;;;;;;;15.54;100.00;96919.38;5020672;28;20049;-59
2023/04/28 10:36:10;;;;;;;1.27;0.52;;;;;;;15.76;100.00;96911.69;5020909;28;20045;-59
2023/04/28 10:39:07;;;;;;;0.50;0.30;;;;;;;15.86;100.00;96920.50;5019595;28;20076;-57
2023/04/28 10:41:33;;;;;;;1.45;0.30;;;;;;;15.69;100.00;96914.78;5017522;28;20081;-58
2023/04/28 10:44:00;;;;;;;1.20;0.70;;;;;;;15.84;100.00;96914.56;5020166;28;20087;-60
2023/04/28 10:46:26;;;;;;;1.73;0.35;;;;;;;16.09;100.00;96915.28;5020393;28;20045;-58
2023/04/28 10:48:54;;;;;;;0.82;0.50;;;;;;;16.08;100.00;96921.84;5020140;28;20049;-60
2023/04/28 10:51:21;;;;;;;0.50;0.30;;;;;;;15.88;100.00;96917.50;5019706;28;20072;-59
2023/04/28 10:53:49;;;;;;;0.95;0.40;;;;;;;15.76;100.00;96912.50;5024971;28;20129;-58
2023/04/28 10:56:20;;;;;;;1.58;0.35;;;;;;;15.91;100.00;96921.53;5020857;28;20072;-59
2023/04/28 10:58:54;;;;;;;0.50;0.30;;;;;;;16.10;100.00;96916.91;5019216;28;20069;-59
2023/04/28 11:01:20;;;;;;;2.35;0.50;;;;;;;16.06;100.00;96915.88;5019631;28;20092;-59
2023/04/28 11:03:47;;;;;;;0.80;0.35;;;;;;;15.99;100.00;96920.91;5020232;28;20041;-59
2023/04/28 11:06:22;;;;;;;0.60;0.38;;;;;;;16.23;100.00;96918.06;5020350;28;20060;-58
2023/04/28 11:08:49;;;;;;;1.30;0.50;;;;;;;16.45;100.00;96921.22;5017881;28;20583;-56
2023/04/28 11:11:18;;;;;;;1.00;0.40;;;;;;;16.32;100.00;96920.06;5016370;28;20091;-58
2023/04/28 11:13:48;;;;;;;0.80;0.40;;;;;;;16.33;100.00;96921.72;5019856;28;20548;-59
2023/04/28 11:16:20;;;;;;;0.73;0.50;;;;;;;16.45;97.62;96919.31;5019080;28;20909;-57
2023/04/28 11:18:55;;;;;;;1.10;0.57;;;;;;;16.33;99.70;96924.44;5022915;28;20049;-60
2023/04/28 11:21:23;;;;;;;0.70;0.32;;;;;;;16.27;99.27;96926.44;5021709;28;20097;-59
2023/04/28 11:23:50;;;;;;;1.13;0.50;;;;;;;16.54;98.45;96913.94;5026718;28;20094;-59
2023/04/28 11:26:18;;;;;;;0.90;0.43;;;;;;;16.18;99.52;96926.31;5024552;28;20079;-59
2023/04/28 11:28:53;;;;;;;1.05;0.43;;;;;;;16.43;97.25;96915.25;5022272;28;20091;-59
2023/04/28 11:31:23;;;;;;;1.63;0.47;;;;;;;16.50;98.89;96918.38;5017648;28;20052;-57
2023/04/28 11:34:17;;;;;;;1.15;0.50;;;;;;;16.51;95.64;96912.63;5024534;28;20053;-60